createdAt,value
2018-12-08T00:00:06.549Z,5.73
2018-12-08T00:01:06.505Z,5.71
2018-12-08T00:02:06.407Z,5.82
2018-12-08T00:03:06.354Z,5.72
2018-12-08T00:04:06.295Z,5.72
2018-12-08T00:05:06.245Z,5.71
2018-12-08T00:06:06.224Z,5.80
2018-12-08T00:07:06.123Z,5.83
2018-12-08T00:08:06.072Z,5.86
2018-12-08T00:09:06.019Z,5.83
2018-12-08T00:10:05.955Z,5.76
2018-12-08T00:11:05.940Z,5.80
2018-12-08T00:12:05.844Z,5.80
2018-12-08T00:13:05.788Z,5.82
2018-12-08T00:14:05.736Z,5.79
2018-12-08T00:15:05.673Z,5.76
2018-12-08T00:16:05.657Z,5.80
2018-12-08T00:17:05.594Z,5.82
2018-12-08T00:18:05.506Z,5.83
2018-12-08T00:19:05.453Z,5.76
2018-12-08T00:20:05.399Z,5.72
2018-12-08T00:21:05.345Z,5.76
2018-12-08T00:22:05.315Z,5.87
2018-12-08T00:23:05.230Z,5.68
2018-12-08T00:24:05.176Z,5.79
2018-12-08T00:25:05.121Z,5.73
2018-12-08T00:26:05.179Z,5.72
2018-12-08T00:27:05.049Z,5.75
2018-12-08T00:28:04.947Z,5.80
2018-12-08T00:29:04.891Z,5.69
2018-12-08T00:30:04.834Z,5.82
2018-12-08T00:31:04.824Z,5.73
2018-12-08T00:32:04.722Z,5.80
2018-12-08T00:33:04.673Z,5.80
2018-12-08T00:34:04.611Z,5.86
2018-12-08T00:35:04.553Z,5.83
2018-12-08T00:36:04.532Z,5.83
2018-12-08T00:37:04.440Z,5.79
2018-12-08T00:38:04.387Z,5.76
2018-12-08T00:39:04.333Z,5.84
2018-12-08T00:40:04.306Z,5.79
2018-12-08T00:41:04.216Z,5.76
2018-12-08T00:42:04.160Z,5.68
2018-12-08T00:43:04.135Z,5.69
2018-12-08T00:44:04.054Z,5.76
2018-12-08T00:45:04.151Z,5.82
2018-12-08T00:46:03.938Z,5.68
2018-12-08T00:47:03.877Z,5.76
2018-12-08T00:48:03.822Z,5.75
2018-12-08T00:49:03.835Z,5.71
2018-12-08T00:50:03.747Z,5.76
2018-12-08T00:51:03.653Z,5.71
2018-12-08T00:52:03.598Z,5.73
2018-12-08T00:53:03.578Z,5.79
2018-12-08T00:54:03.486Z,5.76
2018-12-08T00:55:03.432Z,5.76
2018-12-08T00:56:03.375Z,5.72
2018-12-08T00:57:03.321Z,5.72
2018-12-08T00:58:03.294Z,5.69
2018-12-08T00:59:03.204Z,5.69
2018-12-08T01:00:03.149Z,5.66
2018-12-08T01:01:03.093Z,5.68
2018-12-08T01:02:03.066Z,5.71
2018-12-08T01:03:02.988Z,5.73
2018-12-08T01:04:02.922Z,5.71
2018-12-08T01:05:02.869Z,5.68
2018-12-08T01:06:02.814Z,5.73
2018-12-08T01:07:02.788Z,5.71
2018-12-08T01:08:02.701Z,5.69
2018-12-08T01:09:02.674Z,5.66
2018-12-08T01:10:02.585Z,5.66
2018-12-08T01:11:02.531Z,5.64
2018-12-08T01:12:02.473Z,5.65
2018-12-08T01:13:02.421Z,5.57
2018-12-08T01:14:02.398Z,5.53
2018-12-08T01:15:02.305Z,5.57
2018-12-08T01:16:02.256Z,5.47
2018-12-08T01:17:02.194Z,5.47
2018-12-08T01:18:02.136Z,5.50
2018-12-08T01:19:02.123Z,5.48
2018-12-08T01:20:02.026Z,5.44
2018-12-08T01:21:01.976Z,5.48
2018-12-08T01:22:01.918Z,5.46
2018-12-08T01:23:01.855Z,5.43
2018-12-08T01:24:01.833Z,5.44
2018-12-08T01:25:01.747Z,5.44
2018-12-08T01:26:01.720Z,5.46
2018-12-08T01:27:01.634Z,5.46
2018-12-08T01:28:01.578Z,5.48
2018-12-08T01:29:01.523Z,5.50
2018-12-08T01:30:01.465Z,5.50
2018-12-08T01:31:01.448Z,5.47
2018-12-08T01:32:01.350Z,5.41
2018-12-08T01:33:01.301Z,5.50
2018-12-08T01:34:01.240Z,5.46
2018-12-08T01:35:01.189Z,5.41
2018-12-08T01:36:01.162Z,5.38
2018-12-08T01:37:01.078Z,5.39
2018-12-08T01:38:01.060Z,5.39
2018-12-08T01:39:00.963Z,5.46
2018-12-08T01:40:00.908Z,5.39
2018-12-08T01:41:00.854Z,5.41
2018-12-08T01:42:00.793Z,5.29
2018-12-08T01:43:00.769Z,5.28
2018-12-08T01:44:00.677Z,5.36
2018-12-08T01:45:00.627Z,5.29
2018-12-08T01:46:00.569Z,5.18
2018-12-08T01:47:00.511Z,5.20
2018-12-08T01:48:00.491Z,5.23
2018-12-08T01:49:00.428Z,5.32
2018-12-08T01:50:00.343Z,5.25
2018-12-08T01:51:00.287Z,5.28
2018-12-08T01:52:00.230Z,5.26
2018-12-08T01:53:00.175Z,5.29
2018-12-08T01:54:00.147Z,5.33
2018-12-08T01:55:00.060Z,5.36
2018-12-08T01:56:00.008Z,5.26
2018-12-08T01:56:59.947Z,5.29
2018-12-08T01:57:59.891Z,5.41
2018-12-08T01:58:59.870Z,5.43
2018-12-08T01:59:59.783Z,5.36
2018-12-08T02:00:59.725Z,5.36
2018-12-08T02:01:59.667Z,5.36
2018-12-08T02:02:59.616Z,5.43
2018-12-08T02:03:59.587Z,5.36
2018-12-08T02:04:59.499Z,5.43
2018-12-08T02:05:59.441Z,5.39
2018-12-08T02:06:59.420Z,5.44
2018-12-08T02:07:59.360Z,5.38
2018-12-08T02:08:59.275Z,5.35
2018-12-08T02:09:59.214Z,5.43
2018-12-08T02:10:59.170Z,5.43
2018-12-08T02:11:59.102Z,5.51
2018-12-08T02:12:59.082Z,5.51
2018-12-08T02:13:58.989Z,5.46
2018-12-08T02:14:58.931Z,5.51
2018-12-08T02:15:58.897Z,5.41
2018-12-08T02:16:58.853Z,5.51
2018-12-08T02:17:58.808Z,5.47
2018-12-08T02:18:58.708Z,5.41
2018-12-08T02:19:58.650Z,5.44
2018-12-08T02:20:58.592Z,5.47
2018-12-08T02:21:58.540Z,5.38
2018-12-08T02:22:58.524Z,5.46
2018-12-08T02:23:58.430Z,5.47
2018-12-08T02:24:58.394Z,5.46
2018-12-08T02:25:58.315Z,5.48
2018-12-08T02:26:58.255Z,5.43
2018-12-08T02:27:58.231Z,5.50
2018-12-08T02:28:58.145Z,5.50
2018-12-08T02:29:58.085Z,5.53
2018-12-08T02:30:58.034Z,5.47
2018-12-08T02:31:58.007Z,5.54
2018-12-08T02:32:57.921Z,5.51
2018-12-08T02:33:57.862Z,5.47
2018-12-08T02:34:57.815Z,5.48
2018-12-08T02:35:57.792Z,5.57
2018-12-08T02:36:57.689Z,5.57
2018-12-08T02:37:57.636Z,5.57
2018-12-08T02:38:57.618Z,5.51
2018-12-08T02:39:57.523Z,5.59
2018-12-08T02:40:57.497Z,5.53
2018-12-08T02:41:57.418Z,5.51
2018-12-08T02:42:57.394Z,5.62
2018-12-08T02:43:57.298Z,5.53
2018-12-08T02:44:57.243Z,5.64
2018-12-08T02:45:57.186Z,5.59
2018-12-08T02:46:57.132Z,5.61
2018-12-08T02:47:57.197Z,5.57
2018-12-08T02:48:57.026Z,5.57
2018-12-08T02:49:56.961Z,5.57
2018-12-08T02:50:56.901Z,5.57
2018-12-08T02:51:56.845Z,5.56
2018-12-08T02:52:56.812Z,5.43
2018-12-08T02:53:56.733Z,5.46
2018-12-08T02:54:56.720Z,5.51
2018-12-08T02:55:56.620Z,5.38
2018-12-08T02:56:56.567Z,5.29
2018-12-08T02:57:56.506Z,5.32
2018-12-08T02:58:56.452Z,5.17
2018-12-08T02:59:56.431Z,5.21
2018-12-08T03:00:56.367Z,5.20
2018-12-08T03:01:56.280Z,5.23
2018-12-08T03:02:56.230Z,5.08
2018-12-08T03:03:56.169Z,5.10
2018-12-08T03:04:56.111Z,5.08
2018-12-08T03:05:56.095Z,4.99
2018-12-08T03:06:55.997Z,5.12
2018-12-08T03:07:55.947Z,5.05
2018-12-08T03:08:55.892Z,5.08
2018-12-08T03:09:55.832Z,5.10
2018-12-08T03:10:55.811Z,5.00
2018-12-08T03:11:55.715Z,5.04
2018-12-08T03:12:55.658Z,5.00
2018-12-08T03:13:55.599Z,5.08
2018-12-08T03:14:55.545Z,5.07
2018-12-08T03:15:55.523Z,4.99
2018-12-08T03:16:55.433Z,5.07
2018-12-08T03:17:55.410Z,5.07
2018-12-08T03:18:55.319Z,5.12
2018-12-08T03:19:55.263Z,5.05
2018-12-08T03:20:55.238Z,4.99
2018-12-08T03:21:55.151Z,5.05
2018-12-08T03:22:55.096Z,5.04
2018-12-08T03:23:55.035Z,5.08
2018-12-08T03:24:54.981Z,5.00
2018-12-08T03:25:54.964Z,5.00
2018-12-08T03:26:54.908Z,5.10
2018-12-08T03:27:54.811Z,5.05
2018-12-08T03:28:54.755Z,5.10
2018-12-08T03:29:54.696Z,5.08
2018-12-08T03:30:54.647Z,5.11
2018-12-08T03:31:54.626Z,5.11
2018-12-08T03:32:54.530Z,5.20
2018-12-08T03:33:54.473Z,5.28
2018-12-08T03:34:54.414Z,5.23
2018-12-08T03:35:54.359Z,5.25
2018-12-08T03:36:54.335Z,5.23
2018-12-08T03:37:54.245Z,5.21
2018-12-08T03:38:54.193Z,5.26
2018-12-08T03:39:54.134Z,5.23
2018-12-08T03:40:54.080Z,5.08
2018-12-08T03:41:54.058Z,5.10
2018-12-08T03:42:53.963Z,5.14
2018-12-08T03:43:53.906Z,5.15
2018-12-08T03:44:53.850Z,5.18
2018-12-08T03:45:53.796Z,5.23
2018-12-08T03:46:53.767Z,5.23
2018-12-08T03:47:53.682Z,5.25
2018-12-08T03:48:53.629Z,5.26
2018-12-08T03:49:53.606Z,5.20
2018-12-08T03:50:53.510Z,5.18
2018-12-08T03:51:53.456Z,5.15
2018-12-08T03:52:53.399Z,5.17
2018-12-08T03:53:53.342Z,5.23
2018-12-08T03:54:53.315Z,5.26
2018-12-08T03:55:53.228Z,5.26
2018-12-08T03:56:53.202Z,5.23
2018-12-08T03:57:53.111Z,5.18
2018-12-08T03:58:53.071Z,5.17
2018-12-08T03:59:53.004Z,5.21
2018-12-08T04:00:52.981Z,5.08
2018-12-08T04:01:52.886Z,5.17
2018-12-08T04:02:52.833Z,5.07
2018-12-08T04:03:52.777Z,5.12
2018-12-08T04:04:52.717Z,5.04
2018-12-08T04:05:52.705Z,5.12
2018-12-08T04:06:52.602Z,5.11
2018-12-08T04:07:52.548Z,5.17
2018-12-08T04:08:52.491Z,5.08
2018-12-08T04:09:52.432Z,5.11
2018-12-08T04:10:52.410Z,5.18
2018-12-08T04:11:52.320Z,5.15
2018-12-08T04:12:52.305Z,5.11
2018-12-08T04:13:52.207Z,5.15
2018-12-08T04:14:52.150Z,5.10
2018-12-08T04:15:52.095Z,5.11
2018-12-08T04:16:52.039Z,5.17
2018-12-08T04:17:52.010Z,5.08
2018-12-08T04:18:51.921Z,5.10
2018-12-08T04:19:51.866Z,5.07
2018-12-08T04:20:51.840Z,5.17
2018-12-08T04:21:51.750Z,5.17
2018-12-08T04:22:51.729Z,5.20
2018-12-08T04:23:51.637Z,5.15
2018-12-08T04:24:51.583Z,5.15
2018-12-08T04:25:51.559Z,5.15
2018-12-08T04:26:51.471Z,5.21
2018-12-08T04:27:51.443Z,5.18
2018-12-08T04:28:51.357Z,5.12
2018-12-08T04:29:51.330Z,5.15
2018-12-08T04:30:51.240Z,5.20
2018-12-08T04:31:51.184Z,5.20
2018-12-08T04:32:51.127Z,5.15
2018-12-08T04:33:51.076Z,5.14
2018-12-08T04:34:51.053Z,5.05
2018-12-08T04:35:50.958Z,5.10
2018-12-08T04:36:50.899Z,5.10
2018-12-08T04:37:50.844Z,5.12
2018-12-08T04:38:50.785Z,5.12
2018-12-08T04:39:50.762Z,5.02
2018-12-08T04:40:50.675Z,5.07
2018-12-08T04:41:50.615Z,5.00
2018-12-08T04:42:50.559Z,5.07
2018-12-08T04:43:50.532Z,5.05
2018-12-08T04:44:50.447Z,5.10
2018-12-08T04:45:50.386Z,5.02
2018-12-08T04:46:50.329Z,5.05
2018-12-08T04:47:50.287Z,5.07
2018-12-08T04:48:50.252Z,5.05
2018-12-08T04:49:50.167Z,4.99
2018-12-08T04:50:50.106Z,5.02
2018-12-08T04:51:50.047Z,5.12
2018-12-08T04:52:50.023Z,5.00
2018-12-08T04:53:49.932Z,5.05
2018-12-08T04:54:49.877Z,5.10
2018-12-08T04:55:49.821Z,5.10
2018-12-08T04:56:49.764Z,5.07
2018-12-08T04:57:49.740Z,5.15
2018-12-08T04:58:49.649Z,5.08
2018-12-08T04:59:49.592Z,5.10
2018-12-08T05:00:49.542Z,5.00
2018-12-08T05:01:49.479Z,4.96
2018-12-08T05:02:49.453Z,5.05
2018-12-08T05:03:49.364Z,5.10
2018-12-08T05:04:49.309Z,5.07
2018-12-08T05:05:49.251Z,5.04
2018-12-08T05:06:49.194Z,5.05
2018-12-08T05:07:49.186Z,5.05
2018-12-08T05:08:49.082Z,5.02
2018-12-08T05:09:49.020Z,5.04
2018-12-08T05:10:48.966Z,5.07
2018-12-08T05:11:48.909Z,5.12
2018-12-08T05:12:48.894Z,5.10
2018-12-08T05:13:48.794Z,5.07
2018-12-08T05:14:48.740Z,5.10
2018-12-08T05:15:48.691Z,5.07
2018-12-08T05:16:48.624Z,5.08
2018-12-08T05:17:48.607Z,5.12
2018-12-08T05:18:48.508Z,5.08
2018-12-08T05:19:48.453Z,4.99
2018-12-08T05:20:48.401Z,5.07
2018-12-08T05:21:48.340Z,5.05
2018-12-08T05:22:48.313Z,5.07
2018-12-08T05:23:48.226Z,4.99
2018-12-08T05:24:48.201Z,4.99
2018-12-08T05:25:48.114Z,4.99
2018-12-08T05:26:48.056Z,5.08
2018-12-08T05:27:47.999Z,5.07
2018-12-08T05:28:47.971Z,5.05
2018-12-08T05:29:47.885Z,5.08
2018-12-08T05:30:47.826Z,5.05
2018-12-08T05:31:47.774Z,5.10
2018-12-08T05:32:47.715Z,5.14
2018-12-08T05:33:47.693Z,5.14
2018-12-08T05:34:47.597Z,5.07
2018-12-08T05:35:47.542Z,5.05
2018-12-08T05:36:47.484Z,5.02
2018-12-08T05:37:47.428Z,5.11
2018-12-08T05:38:47.413Z,5.02
2018-12-08T05:39:47.315Z,5.04
2018-12-08T05:40:47.255Z,5.07
2018-12-08T05:41:47.198Z,5.10
2018-12-08T05:42:47.146Z,5.07
2018-12-08T05:43:47.131Z,5.05
2018-12-08T05:44:47.031Z,5.10
2018-12-08T05:45:46.982Z,5.07
2018-12-08T05:46:46.917Z,5.12
2018-12-08T05:47:46.858Z,5.08
2018-12-08T05:48:46.840Z,5.05
2018-12-08T05:49:46.744Z,5.08
2018-12-08T05:50:46.686Z,5.07
2018-12-08T05:51:46.632Z,5.07
2018-12-08T05:52:46.575Z,5.05
2018-12-08T05:53:46.561Z,5.02
2018-12-08T05:54:46.493Z,5.07
2018-12-08T05:55:46.410Z,5.07
2018-12-08T05:56:46.378Z,5.05
2018-12-08T05:57:46.286Z,5.00
2018-12-08T05:58:46.232Z,4.99
2018-12-08T05:59:46.210Z,5.05
2018-12-08T06:00:46.122Z,5.02
2018-12-08T06:01:46.059Z,5.08
2018-12-08T06:02:46.045Z,4.97
2018-12-08T06:03:45.944Z,5.08
2018-12-08T06:04:45.890Z,5.02
2018-12-08T06:05:45.830Z,5.08
2018-12-08T06:06:45.778Z,5.07
2018-12-08T06:07:45.748Z,5.07
2018-12-08T06:08:45.659Z,5.07
2018-12-08T06:09:45.603Z,5.08
2018-12-08T06:10:45.545Z,5.07
2018-12-08T06:11:45.521Z,5.11
2018-12-08T06:12:45.433Z,5.05
2018-12-08T06:13:45.379Z,5.05
2018-12-08T06:14:45.318Z,5.07
2018-12-08T06:15:45.292Z,5.07
2018-12-08T06:16:45.205Z,4.99
2018-12-08T06:17:45.147Z,5.04
2018-12-08T06:18:45.120Z,5.07
2018-12-08T06:19:45.037Z,5.05
2018-12-08T06:20:45.008Z,5.05
2018-12-08T06:21:44.915Z,4.96
2018-12-08T06:22:44.859Z,5.05
2018-12-08T06:23:44.807Z,5.02
2018-12-08T06:24:44.746Z,5.04
2018-12-08T06:25:44.723Z,5.02
2018-12-08T06:26:44.629Z,5.02
2018-12-08T06:27:44.674Z,5.00
2018-12-08T06:28:44.554Z,5.00
2018-12-08T06:29:44.460Z,5.07
2018-12-08T06:30:44.407Z,4.99
2018-12-08T06:31:44.345Z,5.00
2018-12-08T06:32:44.287Z,5.08
2018-12-08T06:33:44.266Z,5.02
2018-12-08T06:34:44.178Z,5.10
2018-12-08T06:35:44.118Z,5.08
2018-12-08T06:36:44.101Z,5.07
2018-12-08T06:37:44.003Z,5.07
2018-12-08T06:38:43.949Z,5.02
2018-12-08T06:39:43.889Z,5.08
2018-12-08T06:40:43.833Z,5.10
2018-12-08T06:41:43.811Z,5.11
2018-12-08T06:42:43.718Z,5.17
2018-12-08T06:43:43.662Z,5.11
2018-12-08T06:44:43.608Z,5.08
2018-12-08T06:45:43.553Z,5.10
2018-12-08T06:46:43.525Z,5.20
2018-12-08T06:47:43.438Z,5.07
2018-12-08T06:48:43.375Z,5.17
2018-12-08T06:49:43.399Z,5.21
2018-12-08T06:50:43.294Z,5.23
2018-12-08T06:51:43.202Z,5.21
2018-12-08T06:52:43.151Z,5.29
2018-12-08T06:53:43.091Z,5.33
2018-12-08T06:54:43.033Z,5.32
2018-12-08T06:55:43.006Z,5.25
2018-12-08T06:56:42.951Z,5.35
2018-12-08T06:57:42.861Z,5.18
2018-12-08T06:58:42.803Z,5.32
2018-12-08T06:59:42.745Z,5.28
2018-12-08T07:00:42.690Z,5.23
2018-12-08T07:01:42.658Z,5.29
2018-12-08T07:02:42.579Z,5.28
2018-12-08T07:03:42.552Z,5.35
2018-12-08T07:04:42.462Z,5.26
2018-12-08T07:05:42.403Z,5.35
2018-12-08T07:06:42.379Z,5.39
2018-12-08T07:07:42.290Z,5.32
2018-12-08T07:08:42.237Z,5.35
2018-12-08T07:09:42.174Z,5.39
2018-12-08T07:10:42.117Z,5.39
2018-12-08T07:11:42.097Z,5.38
2018-12-08T07:12:42.006Z,5.36
2018-12-08T07:13:41.951Z,5.28
2018-12-08T07:14:41.894Z,5.38
2018-12-08T07:15:41.833Z,5.35
2018-12-08T07:16:41.820Z,5.39
2018-12-08T07:17:41.725Z,5.35
2018-12-08T07:18:41.660Z,5.30
2018-12-08T07:19:41.606Z,5.28
2018-12-08T07:20:41.550Z,5.38
2018-12-08T07:21:41.529Z,5.30
2018-12-08T07:22:41.434Z,5.28
2018-12-08T07:23:41.377Z,5.36
2018-12-08T07:24:41.320Z,5.33
2018-12-08T07:25:41.268Z,5.23
2018-12-08T07:26:41.247Z,5.23
2018-12-08T07:27:41.155Z,5.32
2018-12-08T07:28:41.091Z,5.23
2018-12-08T07:29:41.039Z,5.20
2018-12-08T07:30:40.976Z,5.18
2018-12-08T07:31:40.951Z,5.20
2018-12-08T07:32:40.864Z,5.25
2018-12-08T07:33:40.806Z,5.29
2018-12-08T07:34:40.799Z,5.17
2018-12-08T07:35:40.689Z,5.14
2018-12-08T07:36:40.639Z,5.11
2018-12-08T07:37:40.581Z,5.10
2018-12-08T07:38:40.517Z,5.14
2018-12-08T07:39:40.594Z,5.07
2018-12-08T07:40:40.407Z,5.07
2018-12-08T07:41:40.347Z,5.08
2018-12-08T07:42:40.290Z,5.07
2018-12-08T07:43:40.265Z,5.02
2018-12-08T07:44:40.175Z,5.05
2018-12-08T07:45:40.118Z,5.08
2018-12-08T07:46:40.062Z,5.08
2018-12-08T07:47:40.004Z,5.08
2018-12-08T07:48:39.978Z,5.05
2018-12-08T07:49:39.890Z,5.12
2018-12-08T07:50:39.833Z,5.17
2018-12-08T07:51:39.778Z,5.14
2018-12-08T07:52:39.760Z,5.10
2018-12-08T07:53:39.659Z,5.11
2018-12-08T07:54:39.602Z,5.12
2018-12-08T07:55:39.546Z,5.12
2018-12-08T07:56:39.493Z,5.12
2018-12-08T07:57:39.470Z,5.10
2018-12-08T07:58:39.372Z,5.07
2018-12-08T07:59:39.314Z,5.10
2018-12-08T08:00:39.262Z,5.05
2018-12-08T08:01:39.234Z,5.10
2018-12-08T08:02:39.143Z,5.15
2018-12-08T08:03:39.119Z,5.15
2018-12-08T08:04:39.040Z,5.08
2018-12-08T08:05:38.972Z,5.21
2018-12-08T08:06:38.956Z,5.15
2018-12-08T08:07:38.865Z,5.17
2018-12-08T08:08:38.802Z,5.25
2018-12-08T08:09:38.741Z,5.21
2018-12-08T08:10:38.686Z,5.28
2018-12-08T08:11:38.662Z,5.21
2018-12-08T08:12:38.579Z,5.23
2018-12-08T08:13:38.512Z,5.21
2018-12-08T08:14:38.494Z,5.26
2018-12-08T08:15:38.402Z,5.25
2018-12-08T08:16:38.341Z,5.17
2018-12-08T08:17:38.282Z,5.25
2018-12-08T08:18:38.227Z,5.28
2018-12-08T08:19:38.199Z,5.25
2018-12-08T08:20:38.114Z,5.23
2018-12-08T08:21:38.055Z,5.20
2018-12-08T08:22:38.001Z,5.21
2018-12-08T08:23:37.948Z,5.23
2018-12-08T08:24:37.930Z,5.29
2018-12-08T08:25:37.824Z,5.12
2018-12-08T08:26:37.771Z,5.20
2018-12-08T08:27:37.712Z,5.07
2018-12-08T08:28:37.653Z,5.17
2018-12-08T08:29:37.636Z,5.14
2018-12-08T08:30:37.543Z,5.10
2018-12-08T08:31:37.481Z,5.14
2018-12-08T08:32:37.426Z,5.10
2018-12-08T08:33:37.366Z,5.10
2018-12-08T08:34:37.357Z,5.04
2018-12-08T08:35:37.252Z,5.04
2018-12-08T08:36:37.199Z,5.08
2018-12-08T08:37:38.022Z,5.05
2018-12-08T08:38:37.082Z,5.07
2018-12-08T08:39:37.053Z,5.10
2018-12-08T08:40:36.969Z,4.99
2018-12-08T08:41:36.905Z,5.04
2018-12-08T08:42:36.876Z,5.00
2018-12-08T08:43:36.794Z,5.00
2018-12-08T08:44:36.772Z,4.93
2018-12-08T08:45:36.681Z,5.05
2018-12-08T08:46:36.622Z,5.04
2018-12-08T08:47:36.595Z,5.02
2018-12-08T08:48:36.504Z,4.94
2018-12-08T08:49:36.478Z,5.00
2018-12-08T08:50:36.394Z,5.05
2018-12-08T08:51:36.335Z,4.97
2018-12-08T08:52:36.310Z,5.02
2018-12-08T08:53:36.226Z,5.04
2018-12-08T08:54:36.197Z,4.99
2018-12-08T08:55:36.104Z,5.02
2018-12-08T08:56:36.048Z,5.07
2018-12-08T08:57:35.989Z,5.05
2018-12-08T08:58:35.965Z,5.00
2018-12-08T08:59:35.874Z,4.96
2018-12-08T09:00:35.927Z,4.96
2018-12-08T09:01:35.762Z,5.00
2018-12-08T09:02:35.728Z,4.99
2018-12-08T09:03:35.645Z,4.97
2018-12-08T09:04:35.590Z,4.97
2018-12-08T09:05:35.540Z,4.93
2018-12-08T09:06:35.473Z,5.00
2018-12-08T09:07:35.448Z,4.94
2018-12-08T09:08:35.363Z,5.00
2018-12-08T09:09:35.303Z,4.99
2018-12-08T09:10:35.247Z,5.02
2018-12-08T09:11:35.222Z,4.97
2018-12-08T09:12:35.134Z,5.02
2018-12-08T09:13:35.070Z,5.04
2018-12-08T09:14:35.015Z,5.07
2018-12-08T09:15:34.956Z,5.00
2018-12-08T09:16:34.932Z,5.07
2018-12-08T09:17:34.842Z,5.07
2018-12-08T09:18:34.819Z,5.08
2018-12-08T09:19:34.729Z,5.07
2018-12-08T09:20:34.713Z,5.20
2018-12-08T09:21:34.615Z,5.18
2018-12-08T09:22:34.554Z,5.12
2018-12-08T09:23:34.503Z,5.18
2018-12-08T09:24:34.443Z,5.14
2018-12-08T09:25:34.413Z,5.11
2018-12-08T09:26:34.325Z,5.20
2018-12-08T09:27:34.272Z,5.20
2018-12-08T09:28:34.211Z,5.25
2018-12-08T09:29:34.187Z,5.20
2018-12-08T09:30:34.096Z,5.25
2018-12-08T09:31:34.045Z,5.25
2018-12-08T09:32:34.096Z,5.15
2018-12-08T09:33:33.925Z,5.20
2018-12-08T09:34:33.906Z,5.12
2018-12-08T09:35:33.811Z,5.14
2018-12-08T09:36:33.753Z,5.20
2018-12-08T09:37:33.705Z,5.14
2018-12-08T09:38:33.673Z,5.14
2018-12-08T09:39:33.582Z,5.21
2018-12-08T09:40:33.527Z,5.23
2018-12-08T09:41:33.466Z,5.12
2018-12-08T09:42:33.409Z,5.14
2018-12-08T09:43:33.394Z,5.21
2018-12-08T09:44:33.297Z,5.10
2018-12-08T09:45:33.240Z,5.12
2018-12-08T09:46:33.183Z,5.11
2018-12-08T09:47:33.156Z,5.15
2018-12-08T09:48:33.065Z,5.15
2018-12-08T09:49:33.050Z,5.12
2018-12-08T09:50:32.956Z,5.17
2018-12-08T09:51:32.895Z,5.20
2018-12-08T09:52:32.834Z,5.15
2018-12-08T09:53:32.778Z,5.26
2018-12-08T09:54:32.764Z,5.28
2018-12-08T09:55:32.672Z,5.25
2018-12-08T09:56:32.613Z,5.20
2018-12-08T09:57:32.553Z,5.26
2018-12-08T09:58:32.493Z,5.29
2018-12-08T09:59:32.478Z,5.26
2018-12-08T10:00:32.380Z,5.23
2018-12-08T10:01:32.321Z,5.20
2018-12-08T10:02:32.265Z,5.32
2018-12-08T10:03:32.209Z,5.30
2018-12-08T10:04:32.179Z,5.32
2018-12-08T10:05:32.125Z,5.35
2018-12-08T10:06:32.033Z,5.28
2018-12-08T10:07:32.826Z,5.33
2018-12-08T10:08:31.928Z,5.35
2018-12-08T10:09:31.862Z,5.38
2018-12-08T10:10:31.845Z,5.41
2018-12-08T10:11:31.753Z,5.38
2018-12-08T10:12:31.695Z,5.38
2018-12-08T10:13:31.643Z,5.41
2018-12-08T10:14:31.579Z,5.46
2018-12-08T10:15:31.555Z,5.43
2018-12-08T10:16:31.471Z,5.33
2018-12-08T10:17:31.408Z,5.36
2018-12-08T10:18:31.351Z,5.43
2018-12-08T10:19:31.294Z,5.46
2018-12-08T10:20:31.267Z,5.47
2018-12-08T10:21:31.177Z,5.47
2018-12-08T10:22:31.125Z,5.43
2018-12-08T10:23:31.064Z,5.43
2018-12-08T10:24:31.007Z,5.41
2018-12-08T10:25:30.987Z,5.53
2018-12-08T10:26:30.893Z,5.39
2018-12-08T10:27:30.836Z,5.36
2018-12-08T10:28:30.777Z,5.39
2018-12-08T10:29:30.752Z,5.39
2018-12-08T10:30:30.783Z,5.38
2018-12-08T10:31:30.607Z,5.46
2018-12-08T10:32:30.554Z,5.43
2018-12-08T10:33:30.533Z,5.44
2018-12-08T10:34:30.438Z,5.48
2018-12-08T10:35:30.378Z,5.44
2018-12-08T10:36:30.427Z,5.50
2018-12-08T10:37:30.265Z,5.51
2018-12-08T10:38:30.237Z,5.51
2018-12-08T10:39:30.150Z,5.54
2018-12-08T10:40:30.127Z,5.44
2018-12-08T10:41:30.036Z,5.51
2018-12-08T10:42:29.981Z,5.46
2018-12-08T10:43:29.921Z,5.46
2018-12-08T10:44:29.865Z,5.46
2018-12-08T10:45:29.846Z,5.43
2018-12-08T10:46:29.788Z,5.41
2018-12-08T10:47:29.707Z,5.36
2018-12-08T10:48:29.640Z,5.48
2018-12-08T10:49:29.577Z,5.53
2018-12-08T10:50:29.555Z,5.39
2018-12-08T10:51:29.466Z,5.41
2018-12-08T10:52:29.409Z,5.35
2018-12-08T10:53:29.352Z,5.39
2018-12-08T10:54:29.328Z,5.39
2018-12-08T10:55:29.241Z,5.51
2018-12-08T10:56:29.209Z,5.39
2018-12-08T10:57:29.127Z,5.51
2018-12-08T10:58:29.067Z,5.43
2018-12-08T10:59:29.047Z,5.51
2018-12-08T11:00:28.953Z,5.43
2018-12-08T11:01:28.925Z,5.44
2018-12-08T11:02:28.836Z,5.44
2018-12-08T11:03:28.777Z,5.32
2018-12-08T11:04:28.723Z,5.47
2018-12-08T11:05:28.664Z,5.48
2018-12-08T11:06:28.639Z,5.47
2018-12-08T11:07:28.551Z,5.43
2018-12-08T11:08:28.494Z,5.46
2018-12-08T11:09:28.439Z,5.46
2018-12-08T11:10:28.378Z,5.43
2018-12-08T11:11:28.355Z,5.48
2018-12-08T11:12:28.266Z,5.54
2018-12-08T11:13:28.206Z,5.48
2018-12-08T11:14:28.198Z,5.50
2018-12-08T11:15:28.093Z,5.46
2018-12-08T11:16:28.040Z,5.41
2018-12-08T11:17:27.985Z,5.41
2018-12-08T11:18:27.921Z,5.46
2018-12-08T11:19:27.897Z,5.46
2018-12-08T11:20:27.809Z,5.53
2018-12-08T11:21:27.751Z,5.54
2018-12-08T11:22:27.694Z,5.61
2018-12-08T11:23:27.673Z,5.59
2018-12-08T11:24:27.596Z,5.56
2018-12-08T11:25:27.522Z,5.61
2018-12-08T11:26:27.465Z,5.61
2018-12-08T11:27:27.406Z,5.64
2018-12-08T11:28:27.395Z,5.64
2018-12-08T11:29:27.295Z,5.64
2018-12-08T11:30:27.243Z,5.64
2018-12-08T11:31:27.182Z,5.71
2018-12-08T11:32:27.123Z,5.66
2018-12-08T11:33:27.108Z,5.73
2018-12-08T11:34:27.008Z,5.80
2018-12-08T11:35:26.955Z,5.72
2018-12-08T11:36:26.899Z,5.72
2018-12-08T11:37:26.841Z,5.65
2018-12-08T11:38:26.817Z,5.71
2018-12-08T11:39:26.723Z,5.72
2018-12-08T11:40:26.668Z,5.76
2018-12-08T11:41:26.645Z,5.80
2018-12-08T11:42:26.555Z,5.68
2018-12-08T11:43:26.497Z,5.65
2018-12-08T11:44:26.471Z,5.75
2018-12-08T11:45:26.382Z,5.65
2018-12-08T11:46:26.355Z,5.75
2018-12-08T11:47:26.268Z,5.83
2018-12-08T11:48:26.212Z,5.75
2018-12-08T11:49:26.156Z,5.73
2018-12-08T11:50:26.097Z,5.87
2018-12-08T11:51:26.073Z,5.87
2018-12-08T11:52:25.986Z,5.80
2018-12-08T11:53:25.923Z,5.83
2018-12-08T11:54:25.869Z,5.90
2018-12-08T11:55:30.096Z,5.84
2018-12-08T11:56:25.789Z,5.91
2018-12-08T11:57:25.695Z,5.93
2018-12-08T11:58:25.639Z,5.91
2018-12-08T11:59:25.596Z,5.86
2018-12-08T12:00:25.529Z,5.87
2018-12-08T12:01:25.500Z,5.90
2018-12-08T12:02:25.421Z,5.97
2018-12-08T12:03:25.355Z,5.87
2018-12-08T12:04:25.296Z,5.91
2018-12-08T12:05:25.243Z,5.91
2018-12-08T12:06:25.222Z,5.86
2018-12-08T12:07:25.130Z,5.89
2018-12-08T12:08:25.072Z,5.82
2018-12-08T12:09:25.017Z,5.86
2018-12-08T12:10:24.992Z,5.86
2018-12-08T12:11:24.904Z,5.80
2018-12-08T12:12:24.851Z,5.83
2018-12-08T12:13:24.794Z,5.86
2018-12-08T12:14:24.734Z,5.86
2018-12-08T12:15:24.705Z,5.83
2018-12-08T12:16:24.657Z,5.94
2018-12-08T12:17:24.557Z,5.91
2018-12-08T12:18:24.501Z,5.93
2018-12-08T12:19:24.449Z,6.01
2018-12-08T12:20:24.392Z,5.94
2018-12-08T12:21:24.367Z,5.97
2018-12-08T12:22:24.278Z,6.04
2018-12-08T12:23:24.219Z,5.99
2018-12-08T12:24:24.198Z,5.94
2018-12-08T12:25:24.102Z,5.91
2018-12-08T12:26:24.052Z,5.91
2018-12-08T12:27:24.025Z,5.93
2018-12-08T12:28:23.935Z,6.04
2018-12-08T12:29:23.880Z,5.97
2018-12-08T12:30:23.853Z,5.94
2018-12-08T12:31:23.763Z,6.01
2018-12-08T12:32:23.711Z,5.98
2018-12-08T12:33:23.654Z,5.97
2018-12-08T12:34:23.600Z,5.91
2018-12-08T12:35:23.571Z,5.98
2018-12-08T12:36:23.480Z,5.99
2018-12-08T12:37:23.424Z,6.02
2018-12-08T12:38:23.407Z,6.05
2018-12-08T12:39:23.310Z,6.05
2018-12-08T12:40:23.252Z,6.09
2018-12-08T12:41:23.198Z,6.07
2018-12-08T12:42:23.139Z,6.04
2018-12-08T12:43:23.135Z,6.02
2018-12-08T12:44:23.026Z,6.08
2018-12-08T12:45:22.972Z,6.07
2018-12-08T12:46:22.913Z,6.05
2018-12-08T12:47:22.937Z,6.05
2018-12-08T12:48:22.835Z,6.05
2018-12-08T12:49:22.743Z,6.08
2018-12-08T12:50:22.779Z,6.05
2018-12-08T12:51:22.634Z,6.01
2018-12-08T12:52:22.574Z,6.01
2018-12-08T12:53:22.555Z,6.07
2018-12-08T12:54:22.463Z,6.05
2018-12-08T12:55:22.403Z,6.08
2018-12-08T12:56:22.344Z,6.04
2018-12-08T12:57:22.292Z,6.08
2018-12-08T12:58:22.265Z,6.02
2018-12-08T12:59:22.176Z,6.04
2018-12-08T13:00:22.243Z,6.04
2018-12-08T13:01:22.061Z,6.12
2018-12-08T13:02:22.005Z,6.09
2018-12-08T13:03:21.948Z,6.05
2018-12-08T13:04:21.897Z,6.04
2018-12-08T13:05:22.087Z,6.12
2018-12-08T13:06:21.814Z,6.14
2018-12-08T13:07:21.724Z,6.17
2018-12-08T13:08:21.665Z,6.17
2018-12-08T13:09:21.609Z,6.19
2018-12-08T13:10:21.555Z,6.16
2018-12-08T13:11:21.575Z,6.16
2018-12-08T13:12:21.437Z,6.19
2018-12-08T13:13:21.382Z,6.17
2018-12-08T13:14:21.326Z,6.16
2018-12-08T13:15:21.274Z,6.26
2018-12-08T13:16:21.246Z,6.17
2018-12-08T13:17:21.156Z,6.31